createdAt,value
2023-02-17T00:03:47.602Z,36.03
2023-02-17T00:08:46.807Z,33.78
2023-02-17T00:13:56.943Z,31.33
2023-02-17T00:18:58.650Z,35.28
2023-02-17T00:24:11.486Z,31.15
2023-02-17T00:29:08.658Z,33.45
2023-02-17T00:34:09.683Z,31.60
2023-02-17T00:39:17.309Z,31.85
2023-02-17T00:44:23.532Z,35.50
2023-02-17T00:49:27.642Z,31.42
2023-02-17T00:54:24.768Z,33.92
2023-02-17T00:59:23.994Z,31.77
2023-02-17T01:04:21.275Z,32.75
2023-02-17T01:09:19.076Z,33.72
2023-02-17T01:14:24.004Z,28.88
2023-02-17T01:19:21.209Z,31.80
2023-02-17T01:24:21.302Z,31.48
2023-02-17T01:29:21.568Z,30.05
2023-02-17T01:34:22.076Z,30.60
2023-02-17T01:39:22.463Z,30.25
2023-02-17T01:44:23.090Z,26.63
2023-02-17T01:49:33.476Z,32.10
2023-02-17T01:54:41.572Z,34.20
2023-02-17T01:59:42.856Z,28.65
2023-02-17T02:04:45.855Z,28.80
2023-02-17T02:09:49.376Z,24.73
2023-02-17T02:14:52.569Z,26.60
2023-02-17T02:20:37.479Z,27.83
2023-02-17T02:26:12.925Z,25.08
2023-02-17T02:31:29.599Z,26.45
2023-02-17T02:36:29.913Z,26.08
2023-02-17T02:41:31.664Z,24.50
2023-02-17T02:46:28.939Z,24.92
2023-02-17T02:51:40.642Z,23.92
2023-02-17T02:56:49.375Z,23.45
2023-02-17T03:01:53.924Z,22.08
2023-02-17T03:06:56.892Z,22.15
2023-02-17T03:11:57.099Z,24.65
2023-02-17T03:16:56.296Z,24.70
2023-02-17T03:22:04.438Z,21.27
2023-02-17T03:27:10.582Z,32.90
2023-02-17T03:32:08.411Z,32.83
2023-02-17T03:37:12.219Z,32.40
2023-02-17T03:42:09.510Z,32.50
2023-02-17T03:47:11.882Z,32.95
2023-02-17T03:52:16.021Z,34.88
2023-02-17T03:57:17.574Z,30.88
2023-02-17T04:02:19.574Z,26.85
2023-02-17T04:07:17.546Z,30.60
2023-02-17T04:12:14.605Z,23.80
2023-02-17T04:17:15.993Z,24.10
2023-02-17T04:22:18.299Z,22.25
2023-02-17T04:27:23.871Z,23.75
2023-02-17T04:32:25.138Z,24.75
2023-02-17T04:37:24.539Z,25.50
2023-02-17T04:42:25.247Z,29.38
2023-02-17T04:47:22.668Z,27.70
2023-02-17T04:52:23.061Z,27.20
2023-02-17T04:57:23.641Z,26.40
2023-02-17T05:02:30.108Z,51.42
2023-02-17T05:07:50.515Z,30.65
2023-02-17T05:12:54.037Z,31.75
2023-02-17T05:17:57.332Z,33.92
2023-02-17T05:22:56.102Z,33.28
2023-02-17T05:28:00.090Z,34.40
2023-02-17T05:33:38.985Z,40.67
2023-02-17T05:38:58.932Z,43.65
2023-02-17T05:44:15.342Z,39.78
2023-02-17T05:49:16.530Z,45.58
2023-02-17T05:54:14.286Z,45.00
2023-02-17T05:59:18.017Z,53.45
2023-02-17T06:04:25.117Z,45.90
2023-02-17T06:09:39.974Z,51.90
2023-02-17T06:14:54.274Z,46.45
2023-02-17T06:20:04.226Z,48.45
2023-02-17T06:25:36.291Z,44.08
2023-02-17T06:30:44.032Z,44.55
2023-02-17T06:36:49.292Z,46.42
2023-02-17T06:41:59.239Z,50.50
2023-02-17T06:52:40.367Z,48.90
2023-02-17T06:57:47.513Z,56.22
2023-02-17T07:02:59.326Z,56.10
2023-02-17T07:08:06.591Z,49.72
2023-02-17T07:13:16.468Z,57.05
2023-02-17T07:23:36.089Z,50.83
2023-02-17T07:28:49.533Z,53.28
2023-02-17T07:33:54.790Z,52.83
2023-02-17T07:38:56.479Z,50.35
2023-02-17T07:44:11.483Z,53.15
2023-02-17T07:49:40.871Z,49.17
2023-02-17T07:54:45.165Z,49.45
2023-02-17T08:00:24.244Z,51.85
2023-02-17T08:05:51.826Z,52.15
2023-02-17T08:11:23.242Z,61.85
2023-02-17T08:16:29.540Z,49.00
2023-02-17T08:21:41.539Z,49.33
2023-02-17T08:26:57.932Z,53.25
2023-02-17T08:32:02.878Z,48.97
2023-02-17T08:37:15.326Z,56.97
2023-02-17T08:42:50.341Z,48.47
2023-02-17T08:47:50.934Z,51.25
2023-02-17T08:52:54.175Z,50.80
2023-02-17T08:58:22.661Z,46.55
2023-02-17T09:03:20.289Z,45.55
2023-02-17T09:08:35.174Z,46.40
2023-02-17T09:13:52.964Z,48.87
2023-02-17T09:18:57.487Z,49.30
2023-02-17T09:24:42.556Z,49.38
2023-02-17T09:30:02.337Z,41.17
2023-02-17T09:59:43.771Z,40.55
2023-02-17T10:05:52.319Z,42.08
2023-02-17T10:11:32.634Z,41.00
2023-02-17T10:23:24.011Z,38.85
2023-02-17T10:28:46.202Z,42.05
2023-02-17T10:34:20.453Z,36.63
2023-02-17T10:39:49.427Z,39.60
2023-02-17T10:45:11.389Z,44.45
2023-02-17T10:50:35.270Z,40.92
2023-02-17T10:55:52.301Z,45.85
2023-02-17T11:01:05.748Z,39.40
2023-02-17T11:06:33.346Z,41.08
2023-02-17T11:12:10.653Z,33.83
2023-02-17T11:36:55.561Z,35.38
2023-02-17T11:55:59.472Z,30.33
2023-02-17T12:01:19.991Z,32.92
2023-02-17T12:06:39.216Z,33.40
2023-02-17T12:23:12.194Z,27.17
2023-02-17T12:28:43.914Z,25.02
2023-02-17T12:33:57.312Z,21.92
2023-02-17T12:39:11.846Z,24.30
2023-02-17T12:49:46.196Z,26.30
2023-02-17T12:55:03.088Z,25.35
2023-02-17T13:00:14.936Z,23.13
2023-02-17T13:05:24.295Z,24.73
2023-02-17T13:10:57.937Z,30.05
2023-02-17T13:16:16.125Z,22.98
2023-02-17T13:21:44.840Z,25.27
2023-02-17T13:26:56.859Z,21.77
2023-02-17T13:32:10.086Z,27.95
2023-02-17T13:37:38.662Z,18.85
2023-02-17T13:42:55.542Z,20.65
2023-02-17T13:48:01.652Z,22.05
2023-02-17T13:53:07.399Z,19.73
2023-02-17T13:58:44.318Z,20.13
2023-02-17T14:03:58.689Z,18.80
2023-02-17T14:09:03.696Z,18.02
2023-02-17T14:14:07.595Z,17.08
2023-02-17T14:19:14.628Z,24.67
2023-02-17T14:24:48.943Z,20.55
2023-02-17T14:30:09.294Z,21.02
2023-02-17T14:42:34.656Z,23.88
2023-02-17T14:47:35.183Z,21.70
2023-02-17T14:52:36.652Z,20.67
2023-02-17T14:57:45.801Z,26.38
2023-02-17T15:08:33.462Z,22.95
2023-02-17T15:13:54.337Z,19.60
2023-02-17T15:19:34.893Z,19.88
2023-02-17T15:24:52.309Z,22.65
2023-02-17T15:30:22.868Z,16.42
2023-02-17T15:35:35.349Z,19.05
2023-02-17T15:41:16.502Z,17.20
2023-02-17T15:46:22.476Z,22.17
2023-02-17T15:51:24.316Z,14.50
2023-02-17T15:56:48.032Z,19.15
2023-02-17T16:02:10.195Z,20.02
2023-02-17T16:07:24.230Z,17.58
2023-02-17T16:12:30.625Z,15.65
2023-02-17T16:17:41.799Z,17.02
2023-02-17T16:22:50.358Z,20.27
2023-02-17T16:28:10.881Z,16.35
2023-02-17T16:33:14.007Z,29.52
2023-02-17T16:38:55.576Z,29.20
2023-02-17T16:44:25.415Z,35.55
2023-02-17T16:49:51.718Z,32.08
2023-02-17T16:54:51.956Z,47.85
2023-02-17T17:05:31.409Z,27.80
2023-02-17T17:10:54.359Z,26.85
2023-02-17T17:16:19.419Z,26.05
2023-02-17T17:26:30.710Z,26.85
2023-02-17T17:31:37.256Z,31.02
2023-02-17T17:36:41.297Z,28.60
2023-02-17T17:42:06.050Z,28.58
2023-02-17T17:48:10.897Z,29.52
2023-02-17T17:53:29.255Z,22.70
2023-02-17T17:58:47.242Z,24.50
2023-02-17T18:04:11.231Z,25.33
2023-02-17T18:09:31.743Z,21.77
2023-02-17T18:14:34.181Z,23.63
2023-02-17T18:20:12.594Z,23.92
2023-02-17T18:25:15.714Z,32.33
2023-02-17T18:30:43.747Z,27.95
2023-02-17T18:35:57.824Z,26.60
2023-02-17T18:41:20.800Z,24.55
2023-02-17T18:46:30.056Z,28.25
2023-02-17T18:51:55.423Z,23.80
2023-02-17T19:03:09.325Z,30.00
2023-02-17T19:08:39.953Z,27.05
2023-02-17T19:14:12.935Z,32.70
2023-02-17T19:19:42.598Z,30.48
2023-02-17T19:24:54.610Z,28.73
2023-02-17T19:30:33.559Z,27.63
2023-02-17T19:35:43.922Z,30.90
2023-02-17T19:48:09.199Z,28.15
2023-02-17T19:59:30.449Z,26.80
2023-02-17T20:10:31.926Z,22.98
2023-02-17T20:22:42.053Z,22.38
2023-02-17T20:29:18.411Z,28.15
2023-02-17T20:35:08.763Z,21.92
2023-02-17T20:41:18.940Z,20.75
2023-02-17T20:46:36.538Z,23.52
2023-02-17T20:57:29.591Z,20.73
2023-02-17T21:03:12.848Z,24.67
2023-02-17T21:08:47.928Z,30.17
2023-02-17T21:13:51.035Z,18.70
2023-02-17T21:18:53.149Z,36.20
2023-02-17T21:23:53.683Z,19.67
2023-02-17T21:28:54.791Z,17.98
2023-02-17T21:34:23.651Z,18.02
2023-02-17T21:39:43.972Z,16.77
2023-02-17T21:45:04.473Z,15.70
2023-02-17T21:50:22.407Z,17.23
2023-02-17T21:55:37.149Z,16.83
2023-02-17T22:00:42.153Z,16.88
2023-02-17T22:05:54.071Z,20.53
2023-02-17T22:10:58.046Z,20.30
2023-02-17T22:16:00.813Z,14.75
2023-02-17T22:21:11.998Z,15.05
2023-02-17T22:26:25.121Z,18.17
2023-02-17T22:31:29.678Z,16.38
2023-02-17T22:36:30.217Z,15.98
2023-02-17T22:41:28.506Z,15.80
2023-02-17T22:46:26.694Z,14.48
2023-02-17T22:51:35.476Z,15.38
2023-02-17T22:56:40.217Z,13.15
2023-02-17T23:01:51.994Z,15.23
2023-02-17T23:06:49.476Z,14.18
2023-02-17T23:11:49.864Z,18.15
2023-02-17T23:17:01.942Z,17.85
2023-02-17T23:22:16.920Z,17.38
2023-02-17T23:27:16.021Z,18.85
2023-02-17T23:32:18.839Z,21.63
2023-02-17T23:37:24.976Z,17.52
2023-02-17T23:42:27.298Z,17.60
2023-02-17T23:47:31.419Z,18.00
2023-02-17T23:52:47.592Z,16.85
2023-02-17T23:57:52.451Z,15.50
